sensor_id;sensor_type;location;lat;lon;timestamp;P1;durP1;ratioP1;P2;durP2;ratioP2
57023;SDS011;42916;54.346;18.562;2022-09-09T00:01:50;2.60;;;1.70;;
57023;SDS011;42916;54.346;18.562;2022-09-09T00:04:28;4.70;;;2.20;;
57023;SDS011;42916;54.346;18.562;2022-09-09T00:09:44;3.60;;;1.80;;
57023;SDS011;42916;54.346;18.562;2022-09-09T00:17:36;3.20;;;1.60;;
57023;SDS011;42916;54.346;18.562;2022-09-09T00:20:13;4.40;;;1.90;;
57023;SDS011;42916;54.346;18.562;2022-09-09T00:22:47;2.10;;;1.90;;
57023;SDS011;42916;54.346;18.562;2022-09-09T00:28:12;3.10;;;1.80;;
57023;SDS011;42916;54.346;18.562;2022-09-09T00:30:44;2.60;;;1.80;;
57023;SDS011;42916;54.346;18.562;2022-09-09T00:33:15;3.30;;;2.40;;
57023;SDS011;42916;54.346;18.562;2022-09-09T00:35:47;3.60;;;1.80;;
57023;SDS011;42916;54.346;18.562;2022-09-09T00:38:17;4.10;;;1.90;;
57023;SDS011;42916;54.346;18.562;2022-09-09T00:44:00;3.70;;;1.90;;
57023;SDS011;42916;54.346;18.562;2022-09-09T00:46:44;2.50;;;1.70;;
57023;SDS011;42916;54.346;18.562;2022-09-09T00:50:03;5.50;;;1.80;;
57023;SDS011;42916;54.346;18.562;2022-09-09T00:55:33;4.80;;;1.70;;
57023;SDS011;42916;54.346;18.562;2022-09-09T00:58:07;3.40;;;1.60;;
57023;SDS011;42916;54.346;18.562;2022-09-09T01:03:22;4.20;;;1.90;;
57023;SDS011;42916;54.346;18.562;2022-09-09T01:11:33;3.80;;;1.70;;
57023;SDS011;42916;54.346;18.562;2022-09-09T01:28:19;3.60;;;2.20;;
57023;SDS011;42916;54.346;18.562;2022-09-09T01:30:50;3.90;;;1.80;;
57023;SDS011;42916;54.346;18.562;2022-09-09T01:33:21;5.30;;;1.60;;
57023;SDS011;42916;54.346;18.562;2022-09-09T01:35:51;3.20;;;1.70;;
57023;SDS011;42916;54.346;18.562;2022-09-09T01:38:30;7.50;;;2.30;;
57023;SDS011;42916;54.346;18.562;2022-09-09T01:40:59;3.30;;;1.90;;
57023;SDS011;42916;54.346;18.562;2022-09-09T01:43:34;3.20;;;2.10;;
57023;SDS011;42916;54.346;18.562;2022-09-09T01:46:01;5.40;;;2.00;;
57023;SDS011;42916;54.346;18.562;2022-09-09T01:48:30;2.90;;;1.70;;
57023;SDS011;42916;54.346;18.562;2022-09-09T01:51:09;5.30;;;2.10;;
57023;SDS011;42916;54.346;18.562;2022-09-09T01:53:39;2.30;;;1.80;;
57023;SDS011;42916;54.346;18.562;2022-09-09T02:03:57;5.70;;;2.00;;
57023;SDS011;42916;54.346;18.562;2022-09-09T02:06:29;3.20;;;1.80;;
57023;SDS011;42916;54.346;18.562;2022-09-09T02:09:07;3.10;;;1.90;;
57023;SDS011;42916;54.346;18.562;2022-09-09T02:11:39;6.90;;;1.90;;
57023;SDS011;42916;54.346;18.562;2022-09-09T02:14:18;3.60;;;1.80;;
57023;SDS011;42916;54.346;18.562;2022-09-09T02:16:51;4.90;;;1.80;;
57023;SDS011;42916;54.346;18.562;2022-09-09T02:19:29;5.50;;;1.90;;
57023;SDS011;42916;54.346;18.562;2022-09-09T02:22:24;4.10;;;1.70;;
57023;SDS011;42916;54.346;18.562;2022-09-09T02:24:56;3.90;;;2.00;;
57023;SDS011;42916;54.346;18.562;2022-09-09T02:27:26;5.20;;;1.90;;
57023;SDS011;42916;54.346;18.562;2022-09-09T02:29:54;4.30;;;1.80;;
57023;SDS011;42916;54.346;18.562;2022-09-09T02:32:34;6.30;;;2.10;;
57023;SDS011;42916;54.346;18.562;2022-09-09T02:35:10;5.40;;;2.20;;
57023;SDS011;42916;54.346;18.562;2022-09-09T02:37:42;4.10;;;2.30;;
57023;SDS011;42916;54.346;18.562;2022-09-09T02:40:13;3.50;;;2.00;;
57023;SDS011;42916;54.346;18.562;2022-09-09T02:42:45;3.90;;;1.60;;
57023;SDS011;42916;54.346;18.562;2022-09-09T02:45:15;5.20;;;1.90;;
57023;SDS011;42916;54.346;18.562;2022-09-09T02:47:58;3.10;;;1.90;;
57023;SDS011;42916;54.346;18.562;2022-09-09T02:50:34;4.60;;;2.00;;
57023;SDS011;42916;54.346;18.562;2022-09-09T02:53:10;4.30;;;2.30;;
57023;SDS011;42916;54.346;18.562;2022-09-09T02:55:48;6.30;;;1.80;;
57023;SDS011;42916;54.346;18.562;2022-09-09T02:58:22;4.20;;;1.70;;
57023;SDS011;42916;54.346;18.562;2022-09-09T03:00:55;5.50;;;2.00;;
57023;SDS011;42916;54.346;18.562;2022-09-09T03:03:25;2.40;;;1.80;;
57023;SDS011;42916;54.346;18.562;2022-09-09T03:05:52;4.10;;;2.00;;
57023;SDS011;42916;54.346;18.562;2022-09-09T03:08:18;2.80;;;2.10;;
57023;SDS011;42916;54.346;18.562;2022-09-09T03:10:45;2.40;;;1.60;;
57023;SDS011;42916;54.346;18.562;2022-09-09T03:13:14;4.50;;;2.00;;
57023;SDS011;42916;54.346;18.562;2022-09-09T03:15:41;6.20;;;2.00;;
57023;SDS011;42916;54.346;18.562;2022-09-09T03:18:12;3.60;;;2.30;;
57023;SDS011;42916;54.346;18.562;2022-09-09T03:20:38;4.30;;;2.10;;
57023;SDS011;42916;54.346;18.562;2022-09-09T03:23:05;4.10;;;2.20;;
57023;SDS011;42916;54.346;18.562;2022-09-09T03:25:32;4.00;;;2.00;;
57023;SDS011;42916;54.346;18.562;2022-09-09T03:27:59;2.80;;;2.30;;
57023;SDS011;42916;54.346;18.562;2022-09-09T03:30:26;4.10;;;2.50;;
57023;SDS011;42916;54.346;18.562;2022-09-09T03:35:24;3.60;;;2.70;;
57023;SDS011;42916;54.346;18.562;2022-09-09T03:37:50;7.20;;;3.00;;
57023;SDS011;42916;54.346;18.562;2022-09-09T03:40:17;13.10;;;3.50;;
57023;SDS011;42916;54.346;18.562;2022-09-09T03:42:45;5.20;;;2.80;;
57023;SDS011;42916;54.346;18.562;2022-09-09T03:45:11;8.40;;;3.40;;
57023;SDS011;42916;54.346;18.562;2022-09-09T03:47:39;6.60;;;3.30;;
57023;SDS011;42916;54.346;18.562;2022-09-09T03:50:06;7.00;;;3.40;;
57023;SDS011;42916;54.346;18.562;2022-09-09T03:52:37;10.10;;;3.50;;
57023;SDS011;42916;54.346;18.562;2022-09-09T03:55:06;7.90;;;3.20;;
57023;SDS011;42916;54.346;18.562;2022-09-09T03:57:34;8.50;;;3.10;;
57023;SDS011;42916;54.346;18.562;2022-09-09T04:00:03;5.90;;;3.40;;
57023;SDS011;42916;54.346;18.562;2022-09-09T04:02:32;6.00;;;3.70;;
57023;SDS011;42916;54.346;18.562;2022-09-09T04:04:58;7.20;;;4.10;;
57023;SDS011;42916;54.346;18.562;2022-09-09T04:07:26;7.70;;;3.60;;
57023;SDS011;42916;54.346;18.562;2022-09-09T04:09:56;8.70;;;4.10;;
57023;SDS011;42916;54.346;18.562;2022-09-09T04:12:23;7.90;;;3.50;;
57023;SDS011;42916;54.346;18.562;2022-09-09T04:14:50;8.90;;;3.90;;
57023;SDS011;42916;54.346;18.562;2022-09-09T04:17:17;10.20;;;3.70;;
57023;SDS011;42916;54.346;18.562;2022-09-09T04:19:43;7.00;;;3.60;;
57023;SDS011;42916;54.346;18.562;2022-09-09T04:22:10;6.10;;;3.60;;
57023;SDS011;42916;54.346;18.562;2022-09-09T04:24:37;7.10;;;3.00;;
57023;SDS011;42916;54.346;18.562;2022-09-09T04:27:04;7.50;;;3.60;;
57023;SDS011;42916;54.346;18.562;2022-09-09T04:29:32;7.80;;;3.60;;
57023;SDS011;42916;54.346;18.562;2022-09-09T04:32:00;6.60;;;3.90;;
57023;SDS011;42916;54.346;18.562;2022-09-09T04:34:26;9.70;;;3.90;;
57023;SDS011;42916;54.346;18.562;2022-09-09T04:36:55;5.40;;;3.00;;
57023;SDS011;42916;54.346;18.562;2022-09-09T04:39:23;7.20;;;3.60;;
57023;SDS011;42916;54.346;18.562;2022-09-09T04:41:51;5.10;;;3.20;;
57023;SDS011;42916;54.346;18.562;2022-09-09T04:44:17;10.10;;;3.80;;
57023;SDS011;42916;54.346;18.562;2022-09-09T04:46:44;9.50;;;3.50;;
57023;SDS011;42916;54.346;18.562;2022-09-09T04:49:11;7.10;;;3.20;;
57023;SDS011;42916;54.346;18.562;2022-09-09T04:51:38;6.00;;;3.70;;
57023;SDS011;42916;54.346;18.562;2022-09-09T04:54:05;5.60;;;3.20;;
57023;SDS011;42916;54.346;18.562;2022-09-09T04:56:32;8.00;;;3.70;;
57023;SDS011;42916;54.346;18.562;2022-09-09T04:59:00;5.40;;;3.40;;
57023;SDS011;42916;54.346;18.562;2022-09-09T05:01:43;5.40;;;3.70;;
57023;SDS011;42916;54.346;18.562;2022-09-09T05:04:11;6.40;;;4.20;;
57023;SDS011;42916;54.346;18.562;2022-09-09T05:06:38;6.10;;;3.40;;
57023;SDS011;42916;54.346;18.562;2022-09-09T05:09:05;6.00;;;3.60;;
57023;SDS011;42916;54.346;18.562;2022-09-09T05:11:32;5.90;;;3.30;;
57023;SDS011;42916;54.346;18.562;2022-09-09T05:14:14;4.80;;;3.60;;
57023;SDS011;42916;54.346;18.562;2022-09-09T05:16:41;9.40;;;4.10;;
57023;SDS011;42916;54.346;18.562;2022-09-09T05:19:11;8.40;;;3.30;;
57023;SDS011;42916;54.346;18.562;2022-09-09T05:21:44;3.30;;;2.70;;
57023;SDS011;42916;54.346;18.562;2022-09-09T05:24:12;5.60;;;3.50;;
57023;SDS011;42916;54.346;18.562;2022-09-09T05:26:39;5.20;;;3.50;;
57023;SDS011;42916;54.346;18.562;2022-09-09T05:29:07;4.80;;;3.00;;
57023;SDS011;42916;54.346;18.562;2022-09-09T05:31:34;7.00;;;3.40;;
57023;SDS011;42916;54.346;18.562;2022-09-09T05:36:30;7.80;;;3.30;;
57023;SDS011;42916;54.346;18.562;2022-09-09T05:38:57;5.70;;;3.30;;
57023;SDS011;42916;54.346;18.562;2022-09-09T05:41:25;5.30;;;3.60;;
57023;SDS011;42916;54.346;18.562;2022-09-09T05:46:23;5.90;;;3.80;;
57023;SDS011;42916;54.346;18.562;2022-09-09T05:48:52;6.10;;;3.50;;
57023;SDS011;42916;54.346;18.562;2022-09-09T05:51:22;3.70;;;3.30;;
57023;SDS011;42916;54.346;18.562;2022-09-09T05:53:52;6.60;;;3.00;;
57023;SDS011;42916;54.346;18.562;2022-09-09T05:56:23;4.90;;;2.90;;
57023;SDS011;42916;54.346;18.562;2022-09-09T05:58:52;5.40;;;2.50;;
57023;SDS011;42916;54.346;18.562;2022-09-09T06:01:23;5.20;;;2.80;;
57023;SDS011;42916;54.346;18.562;2022-09-09T06:03:52;7.50;;;3.10;;
57023;SDS011;42916;54.346;18.562;2022-09-09T06:06:23;6.20;;;2.60;;
57023;SDS011;42916;54.346;18.562;2022-09-09T06:08:57;2.60;;;2.20;;
57023;SDS011;42916;54.346;18.562;2022-09-09T06:11:26;3.70;;;2.30;;
57023;SDS011;42916;54.346;18.562;2022-09-09T06:13:58;3.00;;;2.40;;
57023;SDS011;42916;54.346;18.562;2022-09-09T06:16:26;5.20;;;2.90;;
57023;SDS011;42916;54.346;18.562;2022-09-09T06:18:55;3.30;;;2.40;;
57023;SDS011;42916;54.346;18.562;2022-09-09T06:21:24;3.40;;;2.60;;
57023;SDS011;42916;54.346;18.562;2022-09-09T06:23:51;3.70;;;2.50;;
57023;SDS011;42916;54.346;18.562;2022-09-09T06:26:18;6.60;;;2.60;;
57023;SDS011;42916;54.346;18.562;2022-09-09T06:28:48;5.00;;;2.40;;
57023;SDS011;42916;54.346;18.562;2022-09-09T06:31:17;4.90;;;2.50;;
57023;SDS011;42916;54.346;18.562;2022-09-09T06:33:50;4.10;;;2.50;;
57023;SDS011;42916;54.346;18.562;2022-09-09T06:38:50;4.40;;;2.60;;
57023;SDS011;42916;54.346;18.562;2022-09-09T06:41:19;5.90;;;2.70;;
57023;SDS011;42916;54.346;18.562;2022-09-09T06:43:47;3.60;;;2.40;;
57023;SDS011;42916;54.346;18.562;2022-09-09T06:46:15;5.20;;;2.60;;
57023;SDS011;42916;54.346;18.562;2022-09-09T06:48:47;5.20;;;2.80;;
57023;SDS011;42916;54.346;18.562;2022-09-09T06:51:19;3.60;;;2.90;;
57023;SDS011;42916;54.346;18.562;2022-09-09T06:53:51;6.50;;;2.50;;
57023;SDS011;42916;54.346;18.562;2022-09-09T06:58:55;4.60;;;3.10;;
57023;SDS011;42916;54.346;18.562;2022-09-09T07:01:27;5.60;;;2.30;;
57023;SDS011;42916;54.346;18.562;2022-09-09T07:03:58;3.50;;;2.10;;
57023;SDS011;42916;54.346;18.562;2022-09-09T07:06:29;3.10;;;2.40;;
57023;SDS011;42916;54.346;18.562;2022-09-09T07:08:59;3.20;;;2.40;;
57023;SDS011;42916;54.346;18.562;2022-09-09T07:11:28;4.30;;;2.60;;
57023;SDS011;42916;54.346;18.562;2022-09-09T07:13:58;5.40;;;2.30;;
57023;SDS011;42916;54.346;18.562;2022-09-09T07:16:26;3.60;;;2.80;;
57023;SDS011;42916;54.346;18.562;2022-09-09T07:18:56;2.80;;;2.30;;
57023;SDS011;42916;54.346;18.562;2022-09-09T07:21:28;5.80;;;2.80;;
57023;SDS011;42916;54.346;18.562;2022-09-09T07:23:56;3.20;;;2.60;;
57023;SDS011;42916;54.346;18.562;2022-09-09T07:26:24;4.50;;;2.50;;
57023;SDS011;42916;54.346;18.562;2022-09-09T07:28:53;4.40;;;2.70;;
57023;SDS011;42916;54.346;18.562;2022-09-09T07:33:52;5.20;;;3.00;;
57023;SDS011;42916;54.346;18.562;2022-09-09T07:36:23;4.60;;;2.80;;
57023;SDS011;42916;54.346;18.562;2022-09-09T07:38:56;4.50;;;2.80;;
57023;SDS011;42916;54.346;18.562;2022-09-09T07:43:54;8.80;;;2.90;;
57023;SDS011;42916;54.346;18.562;2022-09-09T07:46:21;8.80;;;3.10;;
57023;SDS011;42916;54.346;18.562;2022-09-09T07:48:51;4.90;;;2.80;;
57023;SDS011;42916;54.346;18.562;2022-09-09T07:51:42;5.00;;;2.90;;
57023;SDS011;42916;54.346;18.562;2022-09-09T07:54:13;4.20;;;2.50;;
57023;SDS011;42916;54.346;18.562;2022-09-09T07:56:44;5.60;;;2.60;;
57023;SDS011;42916;54.346;18.562;2022-09-09T07:59:11;4.90;;;2.90;;
57023;SDS011;42916;54.346;18.562;2022-09-09T08:01:40;4.10;;;3.00;;
57023;SDS011;42916;54.346;18.562;2022-09-09T08:04:11;5.70;;;3.00;;
57023;SDS011;42916;54.346;18.562;2022-09-09T08:06:48;3.70;;;2.80;;
57023;SDS011;42916;54.346;18.562;2022-09-09T08:09:20;4.70;;;2.60;;
57023;SDS011;42916;54.346;18.562;2022-09-09T08:11:48;6.00;;;2.60;;
57023;SDS011;42916;54.346;18.562;2022-09-09T08:14:16;4.40;;;3.10;;
57023;SDS011;42916;54.346;18.562;2022-09-09T08:16:45;6.10;;;2.70;;
57023;SDS011;42916;54.346;18.562;2022-09-09T08:19:14;5.80;;;3.70;;
57023;SDS011;42916;54.346;18.562;2022-09-09T08:21:42;6.40;;;2.60;;
57023;SDS011;42916;54.346;18.562;2022-09-09T08:24:11;5.70;;;2.90;;
57023;SDS011;42916;54.346;18.562;2022-09-09T08:26:46;3.40;;;2.60;;
57023;SDS011;42916;54.346;18.562;2022-09-09T08:29:15;4.20;;;3.10;;
57023;SDS011;42916;54.346;18.562;2022-09-09T08:31:47;4.10;;;3.00;;
57023;SDS011;42916;54.346;18.562;2022-09-09T08:34:17;3.60;;;2.80;;
57023;SDS011;42916;54.346;18.562;2022-09-09T08:36:48;6.90;;;2.80;;
57023;SDS011;42916;54.346;18.562;2022-09-09T08:39:17;3.60;;;2.90;;
57023;SDS011;42916;54.346;18.562;2022-09-09T08:41:56;5.80;;;2.80;;
57023;SDS011;42916;54.346;18.562;2022-09-09T08:47:47;4.80;;;2.70;;
57023;SDS011;42916;54.346;18.562;2022-09-09T08:53:20;6.20;;;2.50;;
57023;SDS011;42916;54.346;18.562;2022-09-09T08:58:45;3.70;;;3.10;;
57023;SDS011;42916;54.346;18.562;2022-09-09T09:01:37;3.20;;;2.40;;
57023;SDS011;42916;54.346;18.562;2022-09-09T09:04:12;3.10;;;2.60;;
57023;SDS011;42916;54.346;18.562;2022-09-09T09:12:33;5.30;;;3.00;;
57023;SDS011;42916;54.346;18.562;2022-09-09T09:15:11;4.50;;;2.90;;
57023;SDS011;42916;54.346;18.562;2022-09-09T09:17:44;5.00;;;2.70;;
57023;SDS011;42916;54.346;18.562;2022-09-09T09:20:12;5.50;;;2.80;;
57023;SDS011;42916;54.346;18.562;2022-09-09T09:22:51;7.40;;;3.30;;
57023;SDS011;42916;54.346;18.562;2022-09-09T09:25:23;4.30;;;3.00;;
57023;SDS011;42916;54.346;18.562;2022-09-09T09:30:49;5.50;;;3.40;;
57023;SDS011;42916;54.346;18.562;2022-09-09T09:33:40;3.90;;;3.00;;
57023;SDS011;42916;54.346;18.562;2022-09-09T09:36:11;5.00;;;3.80;;
57023;SDS011;42916;54.346;18.562;2022-09-09T09:38:53;4.50;;;3.20;;
57023;SDS011;42916;54.346;18.562;2022-09-09T09:41:45;5.30;;;3.30;;
57023;SDS011;42916;54.346;18.562;2022-09-09T09:44:25;5.40;;;3.50;;
57023;SDS011;42916;54.346;18.562;2022-09-09T09:49:56;4.00;;;3.40;;
57023;SDS011;42916;54.346;18.562;2022-09-09T09:52:26;3.70;;;2.90;;
57023;SDS011;42916;54.346;18.562;2022-09-09T09:54:59;5.60;;;3.60;;
57023;SDS011;42916;54.346;18.562;2022-09-09T09:57:36;5.50;;;3.50;;
57023;SDS011;42916;54.346;18.562;2022-09-09T10:00:14;28.50;;;7.90;;
57023;SDS011;42916;54.346;18.562;2022-09-09T10:02:46;5.10;;;3.50;;
57023;SDS011;42916;54.346;18.562;2022-09-09T10:08:00;6.80;;;4.20;;
57023;SDS011;42916;54.346;18.562;2022-09-09T10:13:32;5.30;;;4.00;;
57023;SDS011;42916;54.346;18.562;2022-09-09T10:21:33;7.60;;;3.90;;
57023;SDS011;42916;54.346;18.562;2022-09-09T10:32:39;6.70;;;4.20;;
57023;SDS011;42916;54.346;18.562;2022-09-09T10:38:12;5.60;;;4.00;;
57023;SDS011;42916;54.346;18.562;2022-09-09T10:51:47;8.00;;;5.00;;
57023;SDS011;42916;54.346;18.562;2022-09-09T10:54:29;9.00;;;4.60;;
57023;SDS011;42916;54.346;18.562;2022-09-09T10:57:22;7.80;;;4.60;;
57023;SDS011;42916;54.346;18.562;2022-09-09T10:59:52;7.30;;;4.60;;
57023;SDS011;42916;54.346;18.562;2022-09-09T11:02:27;8.00;;;4.70;;
57023;SDS011;42916;54.346;18.562;2022-09-09T11:05:41;6.40;;;4.20;;
57023;SDS011;42916;54.346;18.562;2022-09-09T11:12:53;6.70;;;4.60;;
57023;SDS011;42916;54.346;18.562;2022-09-09T11:15:41;8.00;;;5.10;;
57023;SDS011;42916;54.346;18.562;2022-09-09T11:18:17;6.70;;;4.70;;
57023;SDS011;42916;54.346;18.562;2022-09-09T11:20:52;7.30;;;4.80;;
57023;SDS011;42916;54.346;18.562;2022-09-09T11:23:33;7.80;;;4.50;;
57023;SDS011;42916;54.346;18.562;2022-09-09T11:26:10;9.90;;;4.80;;
57023;SDS011;42916;54.346;18.562;2022-09-09T11:42:43;8.70;;;5.00;;
57023;SDS011;42916;54.346;18.562;2022-09-09T11:47:54;6.50;;;4.60;;
57023;SDS011;42916;54.346;18.562;2022-09-09T11:53:04;6.10;;;5.10;;
57023;SDS011;42916;54.346;18.562;2022-09-09T11:55:46;8.50;;;5.80;;
57023;SDS011;42916;54.346;18.562;2022-09-09T12:00:40;7.50;;;4.90;;
57023;SDS011;42916;54.346;18.562;2022-09-09T12:06:19;8.00;;;5.30;;
57023;SDS011;42916;54.346;18.562;2022-09-09T12:08:56;6.40;;;5.10;;
57023;SDS011;42916;54.346;18.562;2022-09-09T12:11:32;7.40;;;5.00;;
57023;SDS011;42916;54.346;18.562;2022-09-09T12:13:59;5.80;;;4.80;;
57023;SDS011;42916;54.346;18.562;2022-09-09T12:16:31;8.50;;;5.00;;
57023;SDS011;42916;54.346;18.562;2022-09-09T12:19:14;6.60;;;5.30;;
57023;SDS011;42916;54.346;18.562;2022-09-09T12:21:46;6.60;;;5.60;;
57023;SDS011;42916;54.346;18.562;2022-09-09T12:24:20;6.40;;;5.30;;
57023;SDS011;42916;54.346;18.562;2022-09-09T12:27:14;7.00;;;5.40;;
57023;SDS011;42916;54.346;18.562;2022-09-09T12:32:28;6.90;;;5.30;;
57023;SDS011;42916;54.346;18.562;2022-09-09T12:35:00;7.10;;;5.40;;
57023;SDS011;42916;54.346;18.562;2022-09-09T12:40:38;8.20;;;5.70;;
57023;SDS011;42916;54.346;18.562;2022-09-09T12:43:19;8.10;;;6.50;;
57023;SDS011;42916;54.346;18.562;2022-09-09T12:45:49;9.30;;;6.80;;
57023;SDS011;42916;54.346;18.562;2022-09-09T12:48:34;7.10;;;5.90;;
57023;SDS011;42916;54.346;18.562;2022-09-09T12:51:05;6.10;;;5.00;;
57023;SDS011;42916;54.346;18.562;2022-09-09T12:53:45;7.40;;;5.20;;
57023;SDS011;42916;54.346;18.562;2022-09-09T12:56:19;6.30;;;4.90;;
57023;SDS011;42916;54.346;18.562;2022-09-09T12:58:49;7.60;;;6.20;;
57023;SDS011;42916;54.346;18.562;2022-09-09T13:01:22;7.00;;;5.50;;
57023;SDS011;42916;54.346;18.562;2022-09-09T13:03:52;6.50;;;5.20;;
57023;SDS011;42916;54.346;18.562;2022-09-09T13:06:23;8.70;;;5.20;;
57023;SDS011;42916;54.346;18.562;2022-09-09T13:08:55;7.00;;;4.70;;
57023;SDS011;42916;54.346;18.562;2022-09-09T13:14:03;6.50;;;5.30;;
57023;SDS011;42916;54.346;18.562;2022-09-09T13:16:34;7.20;;;5.50;;
57023;SDS011;42916;54.346;18.562;2022-09-09T13:19:06;7.90;;;5.50;;
57023;SDS011;42916;54.346;18.562;2022-09-09T13:21:36;6.10;;;5.40;;
57023;SDS011;42916;54.346;18.562;2022-09-09T13:24:05;8.20;;;6.10;;
57023;SDS011;42916;54.346;18.562;2022-09-09T13:26:59;6.70;;;5.40;;
57023;SDS011;42916;54.346;18.562;2022-09-09T13:29:31;7.70;;;6.00;;
57023;SDS011;42916;54.346;18.562;2022-09-09T13:32:05;8.70;;;6.70;;
57023;SDS011;42916;54.346;18.562;2022-09-09T13:34:39;8.00;;;6.50;;
57023;SDS011;42916;54.346;18.562;2022-09-09T13:37:22;12.00;;;8.00;;
57023;SDS011;42916;54.346;18.562;2022-09-09T13:39:57;10.40;;;7.40;;
57023;SDS011;42916;54.346;18.562;2022-09-09T13:42:25;14.70;;;8.40;;
57023;SDS011;42916;54.346;18.562;2022-09-09T13:44:55;7.70;;;6.90;;
57023;SDS011;42916;54.346;18.562;2022-09-09T13:47:34;12.40;;;7.20;;
57023;SDS011;42916;54.346;18.562;2022-09-09T13:52:47;15.30;;;7.30;;
57023;SDS011;42916;54.346;18.562;2022-09-09T13:55:17;11.40;;;7.00;;
57023;SDS011;42916;54.346;18.562;2022-09-09T13:57:58;13.80;;;7.80;;
57023;SDS011;42916;54.346;18.562;2022-09-09T14:00:30;8.20;;;6.40;;
57023;SDS011;42916;54.346;18.562;2022-09-09T14:02:58;9.70;;;7.10;;
57023;SDS011;42916;54.346;18.562;2022-09-09T14:05:28;9.40;;;7.10;;
57023;SDS011;42916;54.346;18.562;2022-09-09T14:07:58;8.50;;;6.50;;
57023;SDS011;42916;54.346;18.562;2022-09-09T14:10:26;9.20;;;6.50;;
57023;SDS011;42916;54.346;18.562;2022-09-09T14:12:53;9.50;;;7.40;;
57023;SDS011;42916;54.346;18.562;2022-09-09T14:15:19;9.70;;;7.60;;
57023;SDS011;42916;54.346;18.562;2022-09-09T14:17:48;12.10;;;7.60;;
57023;SDS011;42916;54.346;18.562;2022-09-09T14:20:15;9.60;;;7.20;;
57023;SDS011;42916;54.346;18.562;2022-09-09T14:22:43;8.70;;;7.30;;
57023;SDS011;42916;54.346;18.562;2022-09-09T14:25:10;10.90;;;7.50;;
57023;SDS011;42916;54.346;18.562;2022-09-09T14:27:39;10.20;;;7.60;;
57023;SDS011;42916;54.346;18.562;2022-09-09T14:30:07;8.40;;;7.00;;
57023;SDS011;42916;54.346;18.562;2022-09-09T14:32:34;12.30;;;8.00;;
57023;SDS011;42916;54.346;18.562;2022-09-09T14:35:01;9.40;;;7.60;;
57023;SDS011;42916;54.346;18.562;2022-09-09T14:37:28;10.40;;;7.60;;
57023;SDS011;42916;54.346;18.562;2022-09-09T14:39:54;10.10;;;7.30;;
57023;SDS011;42916;54.346;18.562;2022-09-09T14:42:22;10.60;;;7.70;;
57023;SDS011;42916;54.346;18.562;2022-09-09T14:44:49;8.80;;;7.60;;
57023;SDS011;42916;54.346;18.562;2022-09-09T14:47:16;10.70;;;7.60;;
57023;SDS011;42916;54.346;18.562;2022-09-09T14:49:42;10.50;;;8.00;;
57023;SDS011;42916;54.346;18.562;2022-09-09T14:52:09;8.70;;;7.40;;
57023;SDS011;42916;54.346;18.562;2022-09-09T14:54:36;11.90;;;8.20;;
57023;SDS011;42916;54.346;18.562;2022-09-09T14:57:02;10.30;;;7.30;;
57023;SDS011;42916;54.346;18.562;2022-09-09T14:59:29;8.20;;;7.00;;
57023;SDS011;42916;54.346;18.562;2022-09-09T15:01:56;7.40;;;5.60;;
57023;SDS011;42916;54.346;18.562;2022-09-09T15:04:22;11.00;;;8.20;;
57023;SDS011;42916;54.346;18.562;2022-09-09T15:06:50;9.70;;;8.30;;
57023;SDS011;42916;54.346;18.562;2022-09-09T15:09:18;10.40;;;8.40;;
57023;SDS011;42916;54.346;18.562;2022-09-09T15:11:45;11.70;;;8.40;;
57023;SDS011;42916;54.346;18.562;2022-09-09T15:14:12;9.20;;;8.10;;
57023;SDS011;42916;54.346;18.562;2022-09-09T15:16:39;9.30;;;7.30;;
57023;SDS011;42916;54.346;18.562;2022-09-09T15:19:06;8.40;;;6.70;;
57023;SDS011;42916;54.346;18.562;2022-09-09T15:21:35;12.10;;;8.40;;
57023;SDS011;42916;54.346;18.562;2022-09-09T15:26:30;12.30;;;9.30;;
57023;SDS011;42916;54.346;18.562;2022-09-09T15:28:57;13.20;;;9.10;;
57023;SDS011;42916;54.346;18.562;2022-09-09T15:31:26;10.20;;;8.10;;
57023;SDS011;42916;54.346;18.562;2022-09-09T15:33:56;16.30;;;10.00;;
57023;SDS011;42916;54.346;18.562;2022-09-09T15:36:28;14.90;;;9.40;;
57023;SDS011;42916;54.346;18.562;2022-09-09T15:38:55;12.60;;;10.00;;
57023;SDS011;42916;54.346;18.562;2022-09-09T15:41:22;12.90;;;9.20;;
57023;SDS011;42916;54.346;18.562;2022-09-09T15:43:50;11.50;;;7.90;;
57023;SDS011;42916;54.346;18.562;2022-09-09T15:48:45;12.20;;;9.20;;
57023;SDS011;42916;54.346;18.562;2022-09-09T15:51:12;10.10;;;8.10;;
57023;SDS011;42916;54.346;18.562;2022-09-09T15:53:40;14.00;;;10.40;;
57023;SDS011;42916;54.346;18.562;2022-09-09T15:56:07;12.30;;;9.40;;
57023;SDS011;42916;54.346;18.562;2022-09-09T15:58:34;16.00;;;10.00;;
57023;SDS011;42916;54.346;18.562;2022-09-09T16:01:11;11.60;;;7.70;;
57023;SDS011;42916;54.346;18.562;2022-09-09T16:03:43;13.80;;;10.20;;
57023;SDS011;42916;54.346;18.562;2022-09-09T16:06:12;13.70;;;10.10;;
57023;SDS011;42916;54.346;18.562;2022-09-09T16:08:42;15.00;;;10.10;;
57023;SDS011;42916;54.346;18.562;2022-09-09T16:11:15;17.00;;;10.70;;
57023;SDS011;42916;54.346;18.562;2022-09-09T16:13:47;13.70;;;10.50;;
57023;SDS011;42916;54.346;18.562;2022-09-09T16:16:16;13.00;;;10.10;;
57023;SDS011;42916;54.346;18.562;2022-09-09T16:18:46;13.20;;;9.80;;
57023;SDS011;42916;54.346;18.562;2022-09-09T16:21:18;15.20;;;10.30;;
57023;SDS011;42916;54.346;18.562;2022-09-09T16:23:46;14.20;;;10.30;;
57023;SDS011;42916;54.346;18.562;2022-09-09T16:26:15;13.90;;;9.90;;
57023;SDS011;42916;54.346;18.562;2022-09-09T16:28:42;15.00;;;11.10;;
57023;SDS011;42916;54.346;18.562;2022-09-09T16:31:13;15.70;;;11.20;;
57023;SDS011;42916;54.346;18.562;2022-09-09T16:33:43;14.20;;;10.40;;
57023;SDS011;42916;54.346;18.562;2022-09-09T16:36:11;15.50;;;11.20;;
57023;SDS011;42916;54.346;18.562;2022-09-09T16:38:40;14.50;;;10.80;;
57023;SDS011;42916;54.346;18.562;2022-09-09T16:41:08;15.80;;;11.30;;
57023;SDS011;42916;54.346;18.562;2022-09-09T16:43:36;15.80;;;10.30;;
57023;SDS011;42916;54.346;18.562;2022-09-09T16:46:14;14.30;;;11.20;;
57023;SDS011;42916;54.346;18.562;2022-09-09T16:48:46;16.00;;;11.80;;
57023;SDS011;42916;54.346;18.562;2022-09-09T16:51:15;18.60;;;12.40;;
57023;SDS011;42916;54.346;18.562;2022-09-09T16:53:47;19.00;;;12.50;;
57023;SDS011;42916;54.346;18.562;2022-09-09T16:56:14;20.90;;;12.40;;
57023;SDS011;42916;54.346;18.562;2022-09-09T16:58:49;19.70;;;12.80;;
57023;SDS011;42916;54.346;18.562;2022-09-09T17:01:26;17.20;;;11.60;;
57023;SDS011;42916;54.346;18.562;2022-09-09T17:06:22;16.40;;;11.60;;
57023;SDS011;42916;54.346;18.562;2022-09-09T17:08:53;20.50;;;12.50;;
57023;SDS011;42916;54.346;18.562;2022-09-09T17:11:21;18.50;;;12.60;;
57023;SDS011;42916;54.346;18.562;2022-09-09T17:13:47;21.90;;;13.00;;
57023;SDS011;42916;54.346;18.562;2022-09-09T17:16:15;20.60;;;13.20;;
57023;SDS011;42916;54.346;18.562;2022-09-09T17:18:43;19.80;;;13.00;;
57023;SDS011;42916;54.346;18.562;2022-09-09T17:21:13;22.70;;;13.60;;
57023;SDS011;42916;54.346;18.562;2022-09-09T17:23:41;20.70;;;13.20;;
57023;SDS011;42916;54.346;18.562;2022-09-09T17:26:09;19.60;;;13.10;;
57023;SDS011;42916;54.346;18.562;2022-09-09T17:28:39;24.60;;;14.80;;
57023;SDS011;42916;54.346;18.562;2022-09-09T17:31:08;20.00;;;13.40;;
57023;SDS011;42916;54.346;18.562;2022-09-09T17:33:38;26.40;;;14.90;;
57023;SDS011;42916;54.346;18.562;2022-09-09T17:36:16;21.30;;;14.60;;
57023;SDS011;42916;54.346;18.562;2022-09-09T17:38:45;21.20;;;14.10;;
57023;SDS011;42916;54.346;18.562;2022-09-09T17:43:50;23.40;;;14.50;;
57023;SDS011;42916;54.346;18.562;2022-09-09T17:46:19;21.00;;;14.50;;